createdAt,value
2023-03-29T00:00:35.971Z,100841.31
2023-03-29T00:03:04.492Z,100853.47
2023-03-29T00:05:35.270Z,100665.59
2023-03-29T00:08:04.347Z,100843.03
2023-03-29T00:10:33.867Z,100775.00
2023-03-29T00:13:04.982Z,100751.66
2023-03-29T00:15:33.209Z,100835.72
2023-03-29T00:18:01.417Z,100830.63
2023-03-29T00:20:29.977Z,100745.44
2023-03-29T00:22:58.077Z,100834.03
2023-03-29T00:25:26.340Z,100825.00
2023-03-29T00:27:54.563Z,100819.66
2023-03-29T00:30:24.068Z,100815.16
2023-03-29T00:32:52.502Z,100815.16
2023-03-29T00:35:20.843Z,100813.59
2023-03-29T00:37:51.098Z,100810.31
2023-03-29T00:40:19.456Z,100816.97
2023-03-29T00:42:47.750Z,100734.03
2023-03-29T00:45:20.520Z,100807.94
2023-03-29T00:47:52.713Z,100806.25
2023-03-29T00:50:26.085Z,100800.91
2023-03-29T00:53:00.955Z,100798.50
2023-03-29T00:55:32.608Z,100792.88
2023-03-29T00:58:02.758Z,100710.34
2023-03-29T01:00:36.347Z,100796.81
2023-03-29T01:03:13.931Z,100785.84
2023-03-29T01:05:47.817Z,100784.16
2023-03-29T01:08:20.312Z,100693.91
2023-03-29T01:10:52.771Z,100771.47
2023-03-29T01:13:26.399Z,100775.13
2023-03-29T01:15:57.047Z,100687.13
2023-03-29T01:18:26.659Z,100769.78
2023-03-29T01:21:12.660Z,100764.41
2023-03-29T01:24:07.841Z,100761.59
2023-03-29T01:26:48.881Z,100584.31
2023-03-29T01:29:25.751Z,100577.28
2023-03-29T01:31:59.289Z,100742.75
2023-03-29T01:34:34.500Z,100654.75
2023-03-29T01:37:08.907Z,100735.41
2023-03-29T01:39:37.349Z,100737.38
2023-03-29T01:42:22.482Z,100733.72
2023-03-29T01:44:57.606Z,100637.03
2023-03-29T01:47:32.319Z,100704.91
2023-03-29T01:50:09.127Z,100721.44
2023-03-29T01:52:41.317Z,100643.81
2023-03-29T01:55:14.330Z,100627.75
2023-03-29T01:57:45.782Z,100701.00
2023-03-29T02:00:19.887Z,100634.72
2023-03-29T02:02:50.018Z,100602.94
2023-03-29T02:05:19.839Z,100681.44
2023-03-29T02:07:50.675Z,100684.09
2023-03-29T02:10:20.102Z,100677.88
2023-03-29T02:12:48.509Z,100675.09
2023-03-29T02:15:21.066Z,100665.22
2023-03-29T02:17:51.154Z,100583.13
2023-03-29T02:20:22.792Z,100660.72
2023-03-29T02:22:58.634Z,100661.56
2023-03-29T02:25:27.258Z,100652.69
2023-03-29T02:27:56.341Z,100655.34
2023-03-29T02:30:28.957Z,100644.63
2023-03-29T02:33:02.071Z,100655.66
2023-03-29T02:35:36.620Z,100642.97
2023-03-29T02:38:09.182Z,100640.28
2023-03-29T02:40:40.223Z,100632.25
2023-03-29T02:43:10.446Z,100631.41
2023-03-29T02:45:42.555Z,100622.41
2023-03-29T02:48:14.891Z,100624.22
2023-03-29T02:50:46.733Z,100616.19
2023-03-29T02:53:18.473Z,100613.78
2023-03-29T02:55:47.337Z,100616.19
2023-03-29T02:58:16.007Z,100617.03
2023-03-29T03:00:48.886Z,100609.00
2023-03-29T03:03:17.290Z,100491.78
2023-03-29T03:05:45.861Z,100607.16
2023-03-29T03:08:14.289Z,100602.81
2023-03-29T03:10:42.560Z,100597.72
2023-03-29T03:13:10.710Z,100600.13
2023-03-29T03:15:41.282Z,100598.44
2023-03-29T03:18:12.772Z,100600.13
2023-03-29T03:20:41.413Z,100600.13
2023-03-29T03:23:10.794Z,100483.25
2023-03-29T03:25:38.950Z,100593.78
2023-03-29T03:28:07.680Z,100594.78
2023-03-29T03:30:35.898Z,100589.41
2023-03-29T03:33:04.104Z,100504.72
2023-03-29T03:35:33.875Z,100584.06
2023-03-29T03:38:02.050Z,100587.47
2023-03-29T03:40:30.167Z,100582.09
2023-03-29T03:42:58.353Z,100563.47
2023-03-29T03:45:26.453Z,100581.25
2023-03-29T03:47:55.029Z,100509.25
2023-03-29T03:50:23.512Z,100569.69
2023-03-29T03:52:53.175Z,100568.00
2023-03-29T03:55:22.128Z,100568.00
2023-03-29T03:57:50.266Z,100569.69
2023-03-29T04:00:20.453Z,100562.66
2023-03-29T04:02:49.443Z,100564.34
2023-03-29T04:05:17.781Z,100562.78
2023-03-29T04:07:45.991Z,100477.69
2023-03-29T04:10:15.972Z,100560.69
2023-03-29T04:12:44.311Z,100564.34
2023-03-29T04:15:12.607Z,100560.69
2023-03-29T04:17:40.932Z,100553.63
2023-03-29T04:20:12.670Z,100548.28
2023-03-29T04:22:41.926Z,100547.44
2023-03-29T04:25:11.832Z,100542.09
2023-03-29T04:27:41.717Z,100461.66
2023-03-29T04:30:10.978Z,100536.16
2023-03-29T04:32:39.400Z,100538.69
2023-03-29T04:35:08.322Z,100522.09
2023-03-29T04:37:37.208Z,100532.22
2023-03-29T04:40:08.793Z,100432.03
2023-03-29T04:42:37.644Z,100544.63
2023-03-29T04:45:08.226Z,100454.31
2023-03-29T04:47:36.734Z,100523.22
2023-03-29T04:50:05.774Z,100345.66
2023-03-29T04:52:34.094Z,100515.19
2023-03-29T04:55:03.361Z,100516.16
2023-03-29T04:57:31.864Z,100521.50
2023-03-29T05:00:00.129Z,100401.59
2023-03-29T05:02:32.398Z,100525.16
2023-03-29T05:05:00.664Z,100502.91
2023-03-29T05:07:28.812Z,100509.13
2023-03-29T05:09:56.965Z,100509.13
2023-03-29T05:12:25.241Z,100500.38
2023-03-29T05:14:53.832Z,100505.44
2023-03-29T05:17:22.146Z,100500.09
2023-03-29T05:19:51.696Z,100501.81
2023-03-29T05:22:20.309Z,100462.59
2023-03-29T05:24:48.525Z,100487.84
2023-03-29T05:27:17.319Z,100493.78
2023-03-29T05:29:45.833Z,100490.09
2023-03-29T05:32:15.009Z,100484.59
2023-03-29T05:34:43.561Z,100492.78
2023-03-29T05:37:13.523Z,100501.81
2023-03-29T05:39:41.674Z,100304.72
2023-03-29T05:42:12.433Z,100484.34
2023-03-29T05:44:40.967Z,100485.75
2023-03-29T05:47:09.166Z,100491.09
2023-03-29T05:49:38.235Z,100479.38
2023-03-29T05:52:06.814Z,100481.22
2023-03-29T05:54:36.420Z,100476.72
2023-03-29T05:57:04.839Z,100487.41
2023-03-29T05:59:33.919Z,100476.72
2023-03-29T06:02:03.855Z,100473.63
2023-03-29T06:04:33.661Z,100475.03
2023-03-29T06:07:02.743Z,100470.50
2023-03-29T06:09:32.197Z,100402.34
2023-03-29T06:12:01.910Z,100468.81
2023-03-29T06:14:30.207Z,100469.69
2023-03-29T06:16:58.400Z,100466.28
2023-03-29T06:19:26.687Z,100468.81
2023-03-29T06:21:54.826Z,100469.69
2023-03-29T06:24:23.480Z,100467.81
2023-03-29T06:26:52.430Z,100467.69
2023-03-29T06:29:22.255Z,100464.19
2023-03-29T06:31:50.594Z,100401.66
2023-03-29T06:34:18.755Z,100466.00
2023-03-29T06:36:47.017Z,100358.28
2023-03-29T06:39:15.194Z,100468.69
2023-03-29T06:41:43.385Z,100461.50
2023-03-29T06:44:11.580Z,100462.47
2023-03-29T06:46:41.625Z,100458.97
2023-03-29T06:49:09.821Z,100453.63
2023-03-29T06:51:37.951Z,100457.97
2023-03-29T06:54:06.083Z,100452.63
2023-03-29T06:56:34.304Z,100466.00
2023-03-29T06:59:02.665Z,100303.06
2023-03-29T07:01:30.876Z,100459.66
2023-03-29T07:04:04.813Z,100455.28
2023-03-29T07:06:33.817Z,100351.81
2023-03-29T07:09:02.002Z,100276.72
2023-03-29T07:11:31.622Z,100452.47
2023-03-29T07:13:59.805Z,100462.34
2023-03-29T07:16:27.882Z,100458.69
2023-03-29T07:18:56.278Z,100377.47
2023-03-29T07:21:26.655Z,100364.50
2023-03-29T07:23:54.828Z,100453.63
2023-03-29T07:26:28.927Z,100453.75
2023-03-29T07:28:57.977Z,100460.66
2023-03-29T07:31:26.085Z,100462.34
2023-03-29T07:33:54.445Z,100461.50
2023-03-29T07:36:22.846Z,100466.28
2023-03-29T07:38:53.992Z,100455.28
2023-03-29T07:41:24.041Z,100358.84
2023-03-29T07:43:52.344Z,100460.66
2023-03-29T07:46:20.744Z,100466.00
2023-03-29T07:48:48.990Z,100466.00
2023-03-29T07:51:17.503Z,100460.66
2023-03-29T07:53:45.793Z,100361.09
2023-03-29T07:56:15.755Z,100455.84
2023-03-29T07:58:43.947Z,100460.66
2023-03-29T08:01:18.833Z,100460.66
2023-03-29T08:03:48.167Z,100372.94
2023-03-29T08:06:17.336Z,100458.09
2023-03-29T08:08:45.528Z,100460.66
2023-03-29T08:11:15.453Z,100440.34
2023-03-29T08:13:43.573Z,100448.25
2023-03-29T08:16:11.915Z,100456.16
2023-03-29T08:18:40.417Z,100451.63
2023-03-29T08:21:09.240Z,100459.66
2023-03-29T08:23:37.417Z,100456.97
2023-03-29T08:26:05.883Z,100311.91
2023-03-29T08:28:35.499Z,100330.38
2023-03-29T08:31:04.119Z,100449.94
2023-03-29T08:33:32.688Z,100453.63
2023-03-29T08:36:00.962Z,100442.91
2023-03-29T08:38:29.163Z,100446.41
2023-03-29T08:40:57.817Z,100437.56
2023-03-29T08:43:51.165Z,100444.59
2023-03-29T08:46:35.174Z,100442.91
2023-03-29T08:49:07.102Z,100437.56
2023-03-29T08:51:39.544Z,100433.88
2023-03-29T08:54:12.663Z,100441.91
2023-03-29T08:56:46.712Z,100438.38
2023-03-29T08:59:23.156Z,100432.19
2023-03-29T09:01:55.301Z,100437.56
2023-03-29T09:04:28.042Z,100439.22
2023-03-29T09:06:57.986Z,100439.22
2023-03-29T09:09:30.479Z,100427.66
2023-03-29T09:12:12.855Z,100286.72
2023-03-29T09:14:53.753Z,100429.53
2023-03-29T09:17:33.384Z,100429.09
2023-03-29T09:20:12.631Z,100359.44
2023-03-29T09:22:49.581Z,100428.53
2023-03-29T09:25:25.513Z,100430.34
2023-03-29T09:28:00.328Z,100377.78
2023-03-29T09:30:33.697Z,100425.72
2023-03-29T09:33:06.158Z,100418.69
2023-03-29T09:35:39.694Z,100430.22
2023-03-29T09:38:12.498Z,100428.53
2023-03-29T09:40:46.378Z,100415.28
2023-03-29T09:43:18.471Z,100340.56
2023-03-29T09:45:54.133Z,100428.53
2023-03-29T09:48:22.832Z,100432.19
2023-03-29T09:50:52.521Z,100430.47
2023-03-29T09:53:22.855Z,100424.16
2023-03-29T09:55:52.296Z,100438.38
2023-03-29T09:58:23.920Z,100428.53
2023-03-29T10:00:55.156Z,100422.06
2023-03-29T10:03:25.971Z,100432.88
2023-03-29T10:05:57.258Z,100337.19
2023-03-29T10:08:28.726Z,100325.34
2023-03-29T10:10:59.505Z,100435.56
2023-03-29T10:13:31.317Z,100437.28
2023-03-29T10:16:03.814Z,100258.28
2023-03-29T10:18:34.588Z,100430.22
2023-03-29T10:21:05.510Z,100428.53
2023-03-29T10:23:35.491Z,100425.84
2023-03-29T10:26:05.428Z,100431.91
2023-03-29T10:28:35.129Z,100431.06
2023-03-29T10:31:08.316Z,100287.88
2023-03-29T10:33:37.937Z,100426.56
2023-03-29T10:36:08.947Z,100439.94
2023-03-29T10:38:39.547Z,100429.25
2023-03-29T10:41:11.805Z,100439.94
2023-03-29T10:43:44.292Z,100438.94
2023-03-29T10:46:21.419Z,100439.94
2023-03-29T10:48:51.361Z,100442.63
2023-03-29T10:51:20.583Z,100302.25
2023-03-29T10:53:48.911Z,100440.91
2023-03-29T10:56:34.036Z,100425.88
2023-03-29T10:59:18.094Z,100436.56
2023-03-29T11:01:59.136Z,100440.09
2023-03-29T11:04:36.680Z,100267.03
2023-03-29T11:07:25.546Z,100439.50
2023-03-29T11:10:01.418Z,100442.91
2023-03-29T11:12:36.146Z,100454.44
2023-03-29T11:15:33.321Z,100439.22
2023-03-29T11:18:16.616Z,100442.91
2023-03-29T11:20:50.865Z,100449.09
2023-03-29T11:23:33.579Z,100345.91
2023-03-29T11:26:12.115Z,100383.94
2023-03-29T11:28:49.227Z,100264.75
2023-03-29T11:31:25.944Z,100437.56
2023-03-29T11:34:04.734Z,100440.38
2023-03-29T11:36:42.478Z,100435.00
2023-03-29T11:39:20.839Z,100436.69
2023-03-29T11:41:54.442Z,100427.13
2023-03-29T11:44:26.333Z,100428.81
2023-03-29T11:47:00.051Z,100426.84
2023-03-29T11:49:35.362Z,100431.34
2023-03-29T11:52:08.005Z,100343.22
2023-03-29T11:54:42.398Z,100353.53
2023-03-29T11:57:20.071Z,100349.31
2023-03-29T11:59:56.421Z,100436.56
2023-03-29T12:02:31.073Z,100436.69
2023-03-29T12:05:07.907Z,100435.69
2023-03-29T12:07:41.293Z,100442.91
2023-03-29T12:10:17.515Z,100440.38
2023-03-29T12:12:50.705Z,100352.97
2023-03-29T12:15:21.669Z,100438.50
2023-03-29T12:18:01.372Z,100440.22
2023-03-29T12:20:35.694Z,100445.59
2023-03-29T12:23:04.146Z,100380.53
2023-03-29T12:25:39.328Z,100355.19
2023-03-29T12:28:24.467Z,100438.38
2023-03-29T12:31:03.477Z,100449.66
2023-03-29T12:34:03.697Z,100305.91
2023-03-29T12:37:16.632Z,100442.88
2023-03-29T12:39:45.294Z,100353.53
2023-03-29T12:42:17.750Z,100351.53
2023-03-29T12:44:50.719Z,100444.59
2023-03-29T12:47:21.544Z,100447.69
2023-03-29T12:49:56.305Z,100454.19
2023-03-29T12:52:31.428Z,100445.16
2023-03-29T12:55:02.703Z,100447.69
2023-03-29T12:57:42.084Z,100438.97
2023-03-29T13:00:22.183Z,100430.09
2023-03-29T13:03:02.902Z,100428.81
2023-03-29T13:05:34.883Z,100429.66
2023-03-29T13:08:24.088Z,100421.75
2023-03-29T13:10:56.736Z,100322.81
2023-03-29T13:13:28.731Z,100425.16
2023-03-29T13:15:57.633Z,100324.81
2023-03-29T13:18:43.162Z,100417.81
2023-03-29T13:21:18.965Z,100345.69
2023-03-29T13:24:00.166Z,100414.44
2023-03-29T13:26:44.007Z,100418.53
2023-03-29T13:29:31.068Z,100326.78
2023-03-29T13:32:07.316Z,100426.56
2023-03-29T13:34:46.724Z,100426.56
2023-03-29T13:37:28.736Z,100421.22
2023-03-29T13:39:58.361Z,100426.28
2023-03-29T13:42:39.125Z,100337.94
2023-03-29T13:45:15.479Z,100348.75
2023-03-29T13:47:54.935Z,100427.13
2023-03-29T13:50:39.953Z,100427.13
2023-03-29T13:53:13.867Z,100427.97
2023-03-29T13:55:48.992Z,100435.31
2023-03-29T13:58:27.963Z,100326.94
2023-03-29T14:01:02.632Z,100342.19
2023-03-29T14:03:37.010Z,100442.34
2023-03-29T14:06:07.829Z,100446.03
2023-03-29T14:08:41.668Z,100438.00
2023-03-29T14:11:24.590Z,100450.25
2023-03-29T14:13:58.121Z,100438.38
2023-03-29T14:16:29.337Z,100435.03
2023-03-29T14:19:00.416Z,100434.16
2023-03-29T14:21:28.700Z,100435.03
2023-03-29T14:23:59.982Z,100427.69
2023-03-29T14:26:34.596Z,100316.66
2023-03-29T14:29:05.646Z,100428.53
2023-03-29T14:31:36.258Z,100432.06
2023-03-29T14:34:08.017Z,100430.78
2023-03-29T14:36:37.439Z,100433.31
2023-03-29T14:39:10.179Z,100436.72
2023-03-29T14:41:40.872Z,100366.53
2023-03-29T14:44:09.677Z,100438.09
2023-03-29T14:46:38.160Z,100440.66
2023-03-29T14:49:07.484Z,100439.81
2023-03-29T14:51:37.111Z,100433.03
2023-03-29T14:54:06.742Z,100445.47
2023-03-29T14:56:35.557Z,100439.81
2023-03-29T14:59:06.009Z,100445.19
2023-03-29T15:01:34.235Z,100352.47
2023-03-29T15:04:06.321Z,100447.13
2023-03-29T15:06:40.164Z,100455.88
2023-03-29T15:09:12.298Z,100461.25
2023-03-29T15:11:40.955Z,100457.56
2023-03-29T15:14:17.400Z,100462.94
2023-03-29T15:16:48.432Z,100457.56
2023-03-29T15:19:19.515Z,100466.59
2023-03-29T15:21:49.884Z,100388.53
2023-03-29T15:24:23.555Z,100463.22
2023-03-29T15:27:03.705Z,100357.53
2023-03-29T15:29:41.840Z,100456.16
2023-03-29T15:32:11.713Z,100446.13
2023-03-29T15:34:40.015Z,100450.53
2023-03-29T15:37:08.411Z,100461.25
2023-03-29T15:39:40.708Z,100446.84
2023-03-29T15:42:11.221Z,100286.50
2023-03-29T15:44:41.341Z,100456.16
2023-03-29T15:47:11.263Z,100463.47
2023-03-29T15:49:39.418Z,100391.59
2023-03-29T15:52:07.672Z,100474.47
2023-03-29T15:54:37.315Z,100402.31
2023-03-29T15:57:07.743Z,100474.75
2023-03-29T15:59:36.688Z,100385.69
2023-03-29T16:02:07.944Z,100485.06
2023-03-29T16:04:36.392Z,100482.69
2023-03-29T16:07:08.723Z,100308.00
2023-03-29T16:09:37.139Z,100491.13
2023-03-29T16:12:05.728Z,100488.59
2023-03-29T16:14:34.090Z,100490.56
2023-03-29T16:17:03.385Z,100492.50
2023-03-29T16:19:34.300Z,100400.91
2023-03-29T16:22:05.191Z,100491.81
2023-03-29T16:24:34.114Z,100328.97
2023-03-29T16:27:02.910Z,100480.41
2023-03-29T16:29:31.853Z,100491.38
2023-03-29T16:32:00.810Z,100491.09
2023-03-29T16:34:30.096Z,100491.09
2023-03-29T16:36:59.749Z,100488.28
2023-03-29T16:39:28.293Z,100492.78
2023-03-29T16:41:56.447Z,100451.91
2023-03-29T16:44:27.018Z,100487.16
2023-03-29T16:46:57.548Z,100489.84
2023-03-29T16:49:25.931Z,100488.88
2023-03-29T16:51:54.056Z,100501.25
2023-03-29T16:54:25.942Z,100500.41
2023-03-29T16:56:54.217Z,100423.00
2023-03-29T16:59:22.542Z,100502.13
2023-03-29T17:01:50.892Z,100508.31
2023-03-29T17:04:19.264Z,100510.97
2023-03-29T17:06:47.557Z,100484.34
2023-03-29T17:09:17.019Z,100493.94
2023-03-29T17:11:46.669Z,100504.66
2023-03-29T17:14:14.879Z,100504.66
2023-03-29T17:16:43.053Z,100335.75
2023-03-29T17:19:11.375Z,100515.38
2023-03-29T17:21:39.977Z,100516.19
2023-03-29T17:24:10.032Z,100498.72
2023-03-29T17:26:38.921Z,100510.84
2023-03-29T17:29:10.216Z,100503.63
2023-03-29T17:31:47.142Z,100516.19
2023-03-29T17:34:15.401Z,100510.00
2023-03-29T17:36:43.612Z,100524.09
2023-03-29T17:39:13.034Z,100524.09
2023-03-29T17:41:41.155Z,100510.84
2023-03-29T17:44:12.278Z,100525.81
2023-03-29T17:46:40.516Z,100525.81
2023-03-29T17:49:08.833Z,100410.81
2023-03-29T17:51:37.146Z,100520.72
2023-03-29T17:54:06.268Z,100531.16
2023-03-29T17:56:34.436Z,100526.63
2023-03-29T17:59:02.791Z,100520.44
2023-03-29T18:01:32.964Z,100525.81
2023-03-29T18:04:01.327Z,100454.00
2023-03-29T18:06:29.537Z,100452.69
2023-03-29T18:08:58.106Z,100466.28
2023-03-29T18:11:27.399Z,100539.19
2023-03-29T18:13:58.991Z,100535.66
2023-03-29T18:16:27.653Z,100541.88
2023-03-29T18:18:57.319Z,100532.00
2023-03-29T18:21:27.507Z,100532.84
2023-03-29T18:23:56.957Z,100539.88
2023-03-29T18:26:25.941Z,100529.44
2023-03-29T18:28:54.359Z,100546.25
2023-03-29T18:31:22.855Z,100545.25
2023-03-29T18:33:51.100Z,100546.97
2023-03-29T18:36:20.912Z,100545.25
2023-03-29T18:38:49.118Z,100548.91
2023-03-29T18:41:17.292Z,100557.66
2023-03-29T18:43:47.801Z,100562.31
2023-03-29T18:46:16.066Z,100561.31
2023-03-29T18:48:44.316Z,100561.31
2023-03-29T18:51:13.478Z,100560.47
2023-03-29T18:53:44.482Z,100555.94
2023-03-29T18:56:12.666Z,100538.47
2023-03-29T18:58:40.801Z,100548.91
2023-03-29T19:01:11.018Z,100542.16
2023-03-29T19:03:39.459Z,100562.16
2023-03-29T19:06:09.049Z,100560.47
2023-03-29T19:08:39.768Z,100567.66
2023-03-29T19:11:11.475Z,100556.94
2023-03-29T19:13:39.705Z,100554.28
2023-03-29T19:16:08.297Z,100470.75
2023-03-29T19:18:36.788Z,100556.50
2023-03-29T19:21:05.388Z,100561.03
2023-03-29T19:23:33.608Z,100463.69
2023-03-29T19:26:04.139Z,100559.47
2023-03-29T19:28:34.744Z,100564.81
2023-03-29T19:31:04.474Z,100559.59
2023-03-29T19:33:33.129Z,100557.91
2023-03-29T19:36:01.654Z,100558.78
2023-03-29T19:38:30.204Z,100560.16
2023-03-29T19:40:58.366Z,100552.69
2023-03-29T19:43:27.312Z,100549.16
2023-03-29T19:45:56.925Z,100550.03
2023-03-29T19:48:25.304Z,100456.03
2023-03-29T19:50:53.535Z,100539.59
2023-03-29T19:53:23.227Z,100544.94
2023-03-29T19:55:51.510Z,100546.75
2023-03-29T19:58:19.674Z,100469.88
2023-03-29T20:00:48.424Z,100547.63
2023-03-29T20:03:18.133Z,100544.94
2023-03-29T20:05:47.540Z,100536.19
2023-03-29T20:08:15.812Z,100548.88
2023-03-29T20:10:44.179Z,100543.25
2023-03-29T20:13:12.295Z,100546.91
2023-03-29T20:15:40.447Z,100552.25
2023-03-29T20:18:08.652Z,100546.91
2023-03-29T20:20:38.932Z,100554.09
2023-03-29T20:23:07.054Z,100550.56
2023-03-29T20:25:36.623Z,100543.53
2023-03-29T20:28:06.638Z,100538.19
2023-03-29T20:30:35.234Z,100531.09
2023-03-29T20:33:04.831Z,100549.72
2023-03-29T20:35:33.246Z,100528.44
2023-03-29T20:38:03.212Z,100522.38
2023-03-29T20:40:31.685Z,100527.47
2023-03-29T20:42:59.941Z,100522.94
2023-03-29T20:45:29.613Z,100515.03
2023-03-29T20:48:02.461Z,100517.84
2023-03-29T20:50:30.968Z,100518.72
2023-03-29T20:53:03.831Z,100414.31
2023-03-29T20:55:34.600Z,100505.47
2023-03-29T20:58:03.548Z,100508.00
2023-03-29T21:00:33.674Z,100505.47
2023-03-29T21:03:03.800Z,100491.09
2023-03-29T21:05:33.560Z,100316.25
2023-03-29T21:08:02.544Z,100516.03
2023-03-29T21:10:31.010Z,100499.25
2023-03-29T21:13:02.879Z,100490.25
2023-03-29T21:15:32.119Z,100316.25
2023-03-29T21:18:00.718Z,100486.59
2023-03-29T21:20:29.184Z,100482.38
2023-03-29T21:22:57.362Z,100475.88
2023-03-29T21:25:25.701Z,100484.91
2023-03-29T21:27:53.937Z,100484.91
2023-03-29T21:30:23.542Z,100483.19
2023-03-29T21:32:51.764Z,100404.75
2023-03-29T21:35:20.147Z,100486.88
2023-03-29T21:37:48.342Z,100491.38
2023-03-29T21:40:16.906Z,100494.19
2023-03-29T21:42:45.437Z,100481.78
2023-03-29T21:45:13.580Z,100485.19
2023-03-29T21:47:43.112Z,100485.19
2023-03-29T21:50:12.618Z,100481.50
2023-03-29T21:52:40.776Z,100488.53
2023-03-29T21:55:09.403Z,100417.31
2023-03-29T21:57:37.527Z,100490.53
2023-03-29T22:00:11.119Z,100486.88
2023-03-29T22:02:39.681Z,100487.88
2023-03-29T22:05:09.785Z,100380.28
2023-03-29T22:07:39.233Z,100342.44
2023-03-29T22:10:09.401Z,100478.84
2023-03-29T22:12:38.680Z,100469.41
2023-03-29T22:15:08.330Z,100377.72
2023-03-29T22:17:37.140Z,100472.75
2023-03-29T22:20:14.033Z,100471.06
2023-03-29T22:22:49.789Z,100476.44
2023-03-29T22:25:18.875Z,100472.75
2023-03-29T22:27:48.613Z,100471.94
2023-03-29T22:30:17.947Z,100460.38
2023-03-29T22:32:46.488Z,100463.31
2023-03-29T22:35:14.636Z,100460.38
2023-03-29T22:37:43.101Z,100456.69
2023-03-29T22:40:14.142Z,100455.03
2023-03-29T22:42:42.394Z,100452.34
2023-03-29T22:45:11.621Z,100455.03
2023-03-29T22:47:39.812Z,100459.50
2023-03-29T22:50:09.034Z,100377.19
2023-03-29T22:52:37.083Z,100453.34
2023-03-29T22:55:05.739Z,100444.59
2023-03-29T22:57:35.585Z,100250.53
2023-03-29T23:00:07.092Z,100443.59
2023-03-29T23:02:35.242Z,100447.97
2023-03-29T23:05:03.361Z,100438.94
2023-03-29T23:07:31.485Z,100444.31
2023-03-29T23:10:00.256Z,100438.09
2023-03-29T23:12:28.375Z,100252.66
2023-03-29T23:14:59.130Z,100438.94
2023-03-29T23:17:27.284Z,100331.41
2023-03-29T23:19:55.379Z,100412.47
2023-03-29T23:22:23.843Z,100305.66
2023-03-29T23:24:52.384Z,100239.31
2023-03-29T23:27:20.879Z,100319.44
2023-03-29T23:29:49.018Z,100413.31
2023-03-29T23:32:18.653Z,100415.84
2023-03-29T23:34:46.805Z,100411.31
2023-03-29T23:37:14.867Z,100408.78
2023-03-29T23:39:43.013Z,100399.78
2023-03-29T23:42:11.095Z,100398.09
2023-03-29T23:44:39.656Z,100398.09
2023-03-29T23:47:09.301Z,100403.44
2023-03-29T23:49:38.801Z,100410.50
2023-03-29T23:52:07.112Z,100300.03
2023-03-29T23:54:35.379Z,100388.22
2023-03-29T23:57:03.685Z,100394.44
2023-03-29T23:59:37.809Z,100312.69
